Time;durP1;ratioP1;P1;durP2;ratioP2;P2;SDS_P1;SDS_P2;PMS_P1;PMS_P2;Temp;Humidity;BMP_temperature;BMP_pressure;BME280_temperature;BME280_humidity;BME280_pressure;Samples;Min_cycle;Max_cycle;Signal;HPM_P1;HPM_P2
2021/04/12 00:01:51;;;;;;;5.53;3.50;;;8.10;92.10;;;;;;5025609;28;20068;-71
2021/04/12 00:04:30;;;;;;;5.28;3.75;;;8.20;92.00;;;;;;5030919;28;20033;-70
2021/04/12 00:07:02;;;;;;;5.45;3.35;;;8.20;91.90;;;;;;5029113;28;20385;-70
2021/04/12 00:09:38;;;;;;;6.47;4.05;;;8.20;91.80;;;;;;5024060;28;20047;-68
2021/04/12 00:12:19;;;;;;;4.78;3.67;;;8.10;91.80;;;;;;5020542;28;20686;-68
2021/04/12 00:15:03;;;;;;;4.70;3.30;;;8.10;91.90;;;;;;5024087;28;20433;-69
2021/04/12 00:17:44;;;;;;;4.20;3.40;;;8.10;91.80;;;;;;5033459;28;20032;-70
2021/04/12 00:20:31;;;;;;;5.43;3.80;;;8.10;91.80;;;;;;5026676;28;20084;-69
2021/04/12 00:23:02;;;;;;;4.45;3.45;;;8.00;91.90;;;;;;5030419;28;20433;-69
2021/04/12 00:25:38;;;;;;;5.95;3.67;;;7.90;92.20;;;;;;5024697;28;20069;-70
2021/04/12 00:28:26;;;;;;;4.32;3.03;;;7.90;92.30;;;;;;5031275;28;20508;-69
2021/04/12 00:31:09;;;;;;;3.97;3.35;;;7.90;92.10;;;;;;5024684;28;20104;-70
2021/04/12 00:33:43;;;;;;;4.30;3.20;;;7.80;92.10;;;;;;5027803;28;20506;-71
2021/04/12 00:36:32;;;;;;;4.28;3.15;;;7.80;92.20;;;;;;5009923;28;20025;-71
2021/04/12 00:39:15;;;;;;;5.32;3.30;;;7.80;92.00;;;;;;5023460;28;20045;-71
2021/04/12 00:42:06;;;;;;;4.32;3.47;;;7.60;92.10;;;;;;5024618;28;20904;-70
2021/04/12 00:44:52;;;;;;;4.28;3.03;;;7.60;92.10;;;;;;5031719;28;20032;-70
2021/04/12 00:47:45;;;;;;;5.35;3.63;;;7.50;92.20;;;;;;5029620;28;20572;-70
2021/04/12 00:50:20;;;;;;;3.95;3.10;;;7.50;92.30;;;;;;5027557;28;20535;-70
2021/04/12 00:52:53;;;;;;;5.07;3.88;;;7.50;92.20;;;;;;5029301;28;20500;-68
2021/04/12 00:55:33;;;;;;;4.68;3.63;;;7.50;92.20;;;;;;5032946;28;20079;-71
2021/04/12 00:58:02;;;;;;;5.63;3.80;;;7.40;92.20;;;;;;5025829;28;20505;-70
2021/04/12 01:00:36;;;;;;;4.88;3.50;;;7.40;92.50;;;;;;5024871;28;20410;-70
2021/04/12 01:03:38;;;;;;;4.68;3.63;;;7.40;92.40;;;;;;5024023;28;20037;-70
2021/04/12 01:06:41;;;;;;;5.88;3.78;;;7.40;92.60;;;;;;5020084;28;20076;-69
2021/04/12 01:09:25;;;;;;;4.97;3.97;;;7.40;92.60;;;;;;5024445;28;20485;-69
2021/04/12 01:12:14;;;;;;;4.47;3.45;;;7.40;93.00;;;;;;5024933;28;20049;-69
2021/04/12 01:15:18;;;;;;;5.63;3.97;;;7.30;92.90;;;;;;5026494;28;20030;-70
2021/04/12 01:18:14;;;;;;;5.30;3.80;;;7.30;92.90;;;;;;5022172;28;20037;-69
2021/04/12 01:21:17;;;;;;;6.78;3.28;;;7.30;92.90;;;;;;5024266;28;20045;-69
2021/04/12 01:24:09;;;;;;;5.43;3.88;;;7.30;92.90;;;;;;5025798;28;20359;-69
2021/04/12 01:26:54;;;;;;;6.43;4.22;;;7.30;93.10;;;;;;5026282;28;20029;-69
2021/04/12 01:29:41;;;;;;;5.28;3.42;;;7.30;93.30;;;;;;5027606;28;20377;-69
2021/04/12 01:32:44;;;;;;;5.50;3.58;;;7.30;93.20;;;;;;5026782;28;20031;-70
2021/04/12 01:35:35;;;;;;;4.55;3.70;;;7.40;93.30;;;;;;5022478;28;20521;-70
2021/04/12 01:38:25;;;;;;;4.15;2.97;;;7.30;93.20;;;;;;5023280;28;20045;-70
2021/04/12 01:41:24;;;;;;;3.90;3.28;;;7.30;93.10;;;;;;5021297;28;20064;-69
2021/04/12 01:44:06;;;;;;;4.90;3.08;;;7.30;93.20;;;;;;5022412;28;20021;-69
2021/04/12 01:46:57;;;;;;;4.45;2.90;;;7.30;93.20;;;;;;5024799;28;20063;-69
2021/04/12 01:49:51;;;;;;;4.53;3.47;;;7.30;93.20;;;;;;5026453;28;20036;-69
2021/04/12 01:52:44;;;;;;;4.07;3.35;;;7.20;93.20;;;;;;5027575;28;20029;-70
2021/04/12 01:55:43;;;;;;;5.55;3.47;;;7.00;93.50;;;;;;5025059;28;20033;-69
2021/04/12 01:58:43;;;;;;;5.00;3.22;;;7.10;93.50;;;;;;5031679;28;20037;-69
2021/04/12 02:01:43;;;;;;;4.45;3.08;;;7.10;93.60;;;;;;5025661;28;20053;-69
2021/04/12 02:04:44;;;;;;;5.43;3.42;;;7.10;93.40;;;;;;5026884;28;20095;-69
2021/04/12 02:07:17;;;;;;;4.70;3.17;;;7.20;93.60;;;;;;5022235;28;20116;-70
2021/04/12 02:09:53;;;;;;;4.93;3.47;;;7.20;93.40;;;;;;5025408;28;20604;-69
2021/04/12 02:12:37;;;;;;;4.28;3.40;;;7.30;93.60;;;;;;5024434;28;20036;-69
2021/04/12 02:15:38;;;;;;;4.53;3.40;;;7.30;93.50;;;;;;5027588;28;20038;-69
2021/04/12 02:18:30;;;;;;;4.82;3.47;;;7.30;93.50;;;;;;5024751;28;20119;-69
2021/04/12 02:21:13;;;;;;;5.43;3.17;;;7.30;93.80;;;;;;5025864;28;20079;-69
2021/04/12 02:24:03;;;;;;;4.60;3.33;;;7.10;93.90;;;;;;5025355;28;20030;-68
2021/04/12 02:26:55;;;;;;;5.00;3.92;;;7.10;93.90;;;;;;5028753;28;20029;-68
2021/04/12 02:29:52;;;;;;;4.60;3.00;;;7.10;93.80;;;;;;5023411;28;20033;-69
2021/04/12 02:32:36;;;;;;;4.07;3.30;;;7.10;93.80;;;;;;5021546;28;20151;-69
2021/04/12 02:35:28;;;;;;;3.63;3.03;;;7.00;93.90;;;;;;5030094;28;20021;-69
2021/04/12 02:38:27;;;;;;;4.70;3.53;;;6.90;93.90;;;;;;5015697;28;20032;-69
2021/04/12 02:41:29;;;;;;;5.00;3.40;;;6.80;94.30;;;;;;5029846;28;20112;-69
2021/04/12 02:44:19;;;;;;;4.93;3.33;;;6.80;94.70;;;;;;5028657;28;20591;-69
2021/04/12 02:47:06;;;;;;;4.35;3.15;;;6.80;94.50;;;;;;5021455;28;20069;-69
2021/04/12 02:50:09;;;;;;;3.97;2.88;;;6.80;94.40;;;;;;5014800;28;20040;-69
2021/04/12 02:53:05;;;;;;;4.22;3.08;;;6.80;94.20;;;;;;5024978;28;20037;-69
2021/04/12 02:56:08;;;;;;;4.82;3.20;;;6.80;94.50;;;;;;5033707;28;20021;-69
2021/04/12 02:58:59;;;;;;;7.00;3.45;;;6.80;94.60;;;;;;5031391;28;20132;-69
2021/04/12 03:01:59;;;;;;;5.68;3.85;;;6.80;94.40;;;;;;5027203;28;20398;-69
2021/04/12 03:04:50;;;;;;;4.70;3.35;;;6.90;94.50;;;;;;5029968;28;20249;-69
2021/04/12 03:07:45;;;;;;;6.80;3.78;;;6.90;94.30;;;;;;5029658;28;20385;-69
2021/04/12 03:10:43;;;;;;;5.88;3.53;;;6.90;94.30;;;;;;5028832;28;20037;-69
2021/04/12 03:13:42;;;;;;;5.85;3.63;;;6.90;94.20;;;;;;5026930;28;20072;-69
2021/04/12 03:16:32;;;;;;;6.50;3.53;;;7.00;94.20;;;;;;5026449;28;20038;-69
2021/04/12 03:19:09;;;;;;;6.20;4.03;;;7.10;94.30;;;;;;5027454;28;20041;-68
2021/04/12 03:22:26;;;;;;;5.85;3.55;;;7.10;94.10;;;;;;5030266;28;20056;-69
2021/04/12 03:25:10;;;;;;;;;;;7.10;94.40;;;;;;5010673;28;20029;-69
2021/04/12 03:28:08;;;;;;;7.57;3.80;;;7.10;94.20;;;;;;5029885;28;19963;-69
2021/04/12 03:30:44;;;;;;;5.55;3.65;;;7.10;94.20;;;;;;5026705;28;20105;-69
2021/04/12 03:33:25;;;;;;;6.82;4.05;;;7.10;94.20;;;;;;5031396;28;20177;-70
2021/04/12 03:36:06;;;;;;;6.07;3.92;;;7.10;94.20;;;;;;5028793;28;20605;-70
2021/04/12 03:38:36;;;;;;;4.75;3.80;;;7.10;94.10;;;;;;5027120;28;20049;-69
2021/04/12 03:41:18;;;;;;;7.13;4.05;;;7.10;94.10;;;;;;5015229;28;20512;-69
2021/04/12 03:44:10;;;;;;;7.00;4.43;;;7.20;94.10;;;;;;5028549;28;20045;-69
2021/04/12 03:47:00;;;;;;;6.40;4.13;;;7.20;94.20;;;;;;5008870;28;20552;-69
2021/04/12 03:49:50;;;;;;;7.38;3.67;;;7.30;94.10;;;;;;5030290;28;20080;-70
2021/04/12 03:52:46;;;;;;;5.28;3.95;;;7.30;94.00;;;;;;5026997;28;20025;-69
2021/04/12 03:55:51;;;;;;;5.25;3.60;;;7.30;93.90;;;;;;5025412;28;20029;-69
2021/04/12 03:58:38;;;;;;;4.85;3.58;;;7.30;93.70;;;;;;5011232;28;20087;-69
2021/04/12 04:01:21;;;;;;;6.72;3.95;;;7.30;93.80;;;;;;5026938;28;20053;-69
2021/04/12 04:04:05;;;;;;;4.80;3.67;;;7.30;93.80;;;;;;5029892;28;20068;-69
2021/04/12 04:06:51;;;;;;;7.93;3.90;;;7.30;93.80;;;;;;5025399;28;20028;-69
2021/04/12 04:09:35;;;;;;;5.57;4.13;;;7.30;94.00;;;;;;5019570;28;20074;-69
2021/04/12 04:12:30;;;;;;;6.90;3.83;;;7.30;93.70;;;;;;5024422;28;20025;-69
2021/04/12 04:15:39;;;;;;;5.93;4.00;;;7.20;94.00;;;;;;5029846;28;20144;-69
2021/04/12 04:18:30;;;;;;;5.05;3.20;;;7.20;93.80;;;;;;5004005;28;20160;-69
2021/04/12 04:21:19;;;;;;;6.18;3.65;;;7.30;93.70;;;;;;5006591;28;20030;-70
2021/04/12 04:24:22;;;;;;;5.35;3.22;;;7.30;93.70;;;;;;5007228;28;20436;-70
2021/04/12 04:27:09;;;;;;;7.28;4.35;;;7.30;93.60;;;;;;5028345;28;20021;-69
2021/04/12 04:29:54;;;;;;;5.68;3.53;;;7.30;93.60;;;;;;5025599;28;20087;-68
2021/04/12 04:32:44;;;;;;;3.70;2.95;;;7.30;93.60;;;;;;5027228;28;20083;-69
2021/04/12 04:35:44;;;;;;;6.65;3.17;;;7.30;93.50;;;;;;5026958;28;20124;-70
2021/04/12 04:38:34;;;;;;;5.05;3.55;;;7.30;93.60;;;;;;5026816;28;22093;-70
2021/04/12 04:41:08;;;;;;;5.07;3.20;;;7.30;93.50;;;;;;5024771;28;20030;-70
2021/04/12 04:44:08;;;;;;;7.43;3.88;;;7.20;93.20;;;;;;5011257;28;20382;-69
2021/04/12 04:47:17;;;;;;;5.00;3.13;;;7.20;93.40;;;;;;5027043;28;20083;-70
2021/04/12 04:50:17;;;;;;;4.40;3.17;;;7.10;93.50;;;;;;5005452;28;20041;-68
2021/04/12 04:53:29;;;;;;;6.47;3.20;;;7.10;93.40;;;;;;5028117;28;20067;-70
2021/04/12 04:56:23;;;;;;;5.45;3.13;;;7.20;93.50;;;;;;5028660;28;20452;-70
2021/04/12 04:59:09;;;;;;;5.00;3.60;;;7.20;93.40;;;;;;5024457;28;20781;-71
2021/04/12 05:01:50;;;;;;;7.10;3.85;;;7.20;93.40;;;;;;5011589;28;20049;-70
2021/04/12 05:04:55;;;;;;;5.25;3.97;;;7.20;93.20;;;;;;4998968;28;20098;-71
2021/04/12 05:08:01;;;;;;;5.97;3.03;;;7.20;93.40;;;;;;5027908;28;20034;-72
2021/04/12 05:10:49;;;;;;;6.20;2.80;;;7.20;93.40;;;;;;5015476;28;20119;-71
2021/04/12 05:13:30;;;;;;;4.85;2.80;;;7.30;93.30;;;;;;5028115;28;20033;-70
2021/04/12 05:16:33;;;;;;;5.15;3.67;;;7.30;93.10;;;;;;5026432;28;20112;-71
2021/04/12 05:19:27;;;;;;;6.57;3.22;;;7.30;92.90;;;;;;5031075;28;20119;-70
2021/04/12 05:22:28;;;;;;;6.05;3.05;;;7.30;92.90;;;;;;5028179;28;20062;-70
2021/04/12 05:25:08;;;;;;;5.88;3.20;;;7.30;92.90;;;;;;5028507;28;20091;-70
2021/04/12 05:27:57;;;;;;;5.57;3.20;;;7.30;92.70;;;;;;5021495;28;20029;-70
2021/04/12 05:30:40;;;;;;;4.55;2.65;;;7.20;92.60;;;;;;5033659;28;20028;-70
2021/04/12 05:33:29;;;;;;;3.80;2.65;;;7.20;92.80;;;;;;5022598;28;21523;-70
2021/04/12 05:36:35;;;;;;;3.83;2.60;;;7.20;92.80;;;;;;5023135;28;20083;-70
2021/04/12 05:39:07;;;;;;;;;;;7.20;92.90;;;;;;5028517;28;20106;-71
2021/04/12 05:42:07;;;;;;;5.70;2.78;;;7.30;92.70;;;;;;5024697;28;19940;-70
2021/04/12 05:44:38;;;;;;;7.47;2.90;;;7.30;92.60;;;;;;5026261;28;20059;-70
2021/04/12 05:47:10;;;;;;;4.78;2.88;;;7.30;92.60;;;;;;5021596;28;20054;-69
2021/04/12 05:50:13;;;;;;;4.72;2.78;;;7.20;92.60;;;;;;5026250;28;20081;-69
2021/04/12 05:52:57;;;;;;;6.68;2.97;;;7.20;92.40;;;;;;5024964;28;20106;-69
2021/04/12 05:55:36;;;;;;;3.67;3.20;;;7.30;92.50;;;;;;5024548;28;21777;-69
2021/04/12 05:58:14;;;;;;;5.82;3.10;;;7.30;92.50;;;;;;5027797;28;20045;-70
2021/04/12 06:00:58;;;;;;;5.60;3.10;;;7.30;92.40;;;;;;5029245;28;20045;-70
2021/04/12 06:03:57;;;;;;;6.43;3.42;;;7.30;92.40;;;;;;5028665;28;20022;-70
2021/04/12 06:06:42;;;;;;;3.75;3.00;;;7.30;92.20;;;;;;5024336;28;20390;-70
2021/04/12 06:09:30;;;;;;;3.50;2.50;;;7.40;92.20;;;;;;5025656;28;20025;-70
2021/04/12 06:12:07;;;;;;;3.60;2.38;;;7.40;92.00;;;;;;5020540;28;22615;-69
2021/04/12 06:14:55;;;;;;;5.40;2.42;;;7.40;92.10;;;;;;5029496;28;20490;-70
2021/04/12 06:17:47;;;;;;;5.07;2.55;;;7.30;91.90;;;;;;5033283;28;20564;-70
2021/04/12 06:20:34;;;;;;;3.63;2.22;;;7.40;92.00;;;;;;5029091;28;20385;-70
2021/04/12 06:23:34;;;;;;;4.07;2.60;;;7.40;91.60;;;;;;5032590;28;20045;-70
2021/04/12 06:26:37;;;;;;;3.03;2.08;;;7.40;91.60;;;;;;5029784;28;20496;-69
2021/04/12 06:29:19;;;;;;;4.32;2.60;;;7.50;91.70;;;;;;5033874;28;20389;-67
2021/04/12 06:32:09;;;;;;;6.47;2.60;;;7.50;91.50;;;;;;5032290;28;20038;-69
2021/04/12 06:34:52;;;;;;;4.43;2.72;;;7.50;91.50;;;;;;5033798;28;20478;-68
2021/04/12 06:37:48;;;;;;;6.97;3.30;;;7.40;91.10;;;;;;5028290;28;20474;-69
2021/04/12 06:40:38;;;;;;;;;;;7.50;91.40;;;;;;5030394;28;20514;-69
2021/04/12 06:43:22;;;;;;;4.10;2.90;;;7.40;90.70;;;;;;5029832;28;19912;-68
2021/04/12 06:46:31;;;;;;;5.13;2.63;;;7.40;90.90;;;;;;5027041;28;20024;-69
2021/04/12 06:49:25;;;;;;;5.13;2.55;;;7.50;90.80;;;;;;5037372;28;20520;-70
2021/04/12 06:52:08;;;;;;;5.18;2.80;;;7.50;90.90;;;;;;5032612;28;20025;-69
2021/04/12 06:54:58;;;;;;;4.43;2.67;;;7.60;90.90;;;;;;5026971;28;20479;-69
2021/04/12 06:57:42;;;;;;;5.05;2.72;;;7.60;90.90;;;;;;5028281;28;20034;-69
2021/04/12 07:00:57;;;;;;;5.43;2.47;;;7.60;90.70;;;;;;5027130;28;20085;-69
2021/04/12 07:04:00;;;;;;;4.20;2.70;;;7.70;90.70;;;;;;5029326;28;20029;-69
2021/04/12 07:06:26;;;;;;;4.95;2.40;;;7.80;90.70;;;;;;5030792;28;20060;-69
2021/04/12 07:09:23;;;;;;;6.60;2.55;;;7.80;90.70;;;;;;5031192;28;20034;-69
2021/04/12 07:12:26;;;;;;;6.35;3.17;;;7.90;90.60;;;;;;5032442;28;20040;-70
2021/04/12 07:15:12;;;;;;;7.65;2.80;;;7.90;90.00;;;;;;5034667;28;20522;-69
2021/04/12 07:18:08;;;;;;;6.47;3.20;;;7.90;90.20;;;;;;5032985;28;20032;-70
2021/04/12 07:21:13;;;;;;;5.15;3.17;;;8.00;90.20;;;;;;5032788;28;20033;-68
2021/04/12 07:23:50;;;;;;;7.33;4.40;;;8.00;90.30;;;;;;5026750;28;20037;-69
2021/04/12 07:26:34;;;;;;;6.82;3.95;;;8.10;90.00;;;;;;5030872;28;20082;-69
2021/04/12 07:29:16;;;;;;;5.25;3.08;;;8.20;89.90;;;;;;5023643;28;20076;-69
2021/04/12 07:32:20;;;;;;;5.75;2.92;;;8.10;88.90;;;;;;5011705;28;20083;-69
2021/04/12 07:35:06;;;;;;;4.63;2.90;;;8.10;89.10;;;;;;5029199;28;20060;-69
2021/04/12 07:38:09;;;;;;;6.40;3.13;;;8.20;88.20;;;;;;5031154;28;20037;-69
2021/04/12 07:40:59;;;;;;;5.63;3.10;;;8.10;87.90;;;;;;5040928;28;20060;-69
2021/04/12 07:44:12;;;;;;;5.68;2.47;;;8.20;87.80;;;;;;5029844;28;20429;-70
2021/04/12 07:47:16;;;;;;;4.47;2.47;;;8.20;87.90;;;;;;5037606;28;20075;-70
2021/04/12 07:50:20;;;;;;;6.63;3.00;;;8.20;87.30;;;;;;5039887;28;20497;-69
2021/04/12 07:53:21;;;;;;;4.38;2.50;;;8.30;86.90;;;;;;5025701;28;20033;-69
2021/04/12 07:56:29;;;;;;;6.53;2.53;;;8.30;85.60;;;;;;5031044;28;20033;-72
2021/04/12 07:59:23;;;;;;;3.22;2.10;;;8.30;86.50;;;;;;5032153;28;20248;-71
2021/04/12 08:02:09;;;;;;;6.57;1.98;;;8.30;86.90;;;;;;5031178;28;20469;-72
2021/04/12 08:05:24;;;;;;;4.97;2.00;;;8.40;86.80;;;;;;5032772;28;20112;-70
2021/04/12 08:08:19;;;;;;;5.18;1.80;;;8.40;86.50;;;;;;5041568;28;20036;-70
2021/04/12 08:11:30;;;;;;;4.60;2.35;;;8.50;86.20;;;;;;5030767;28;20032;-68
2021/04/12 08:14:25;;;;;;;5.63;1.70;;;8.60;85.10;;;;;;5023144;28;20033;-67
2021/04/12 08:17:24;;;;;;;5.32;1.80;;;8.60;84.60;;;;;;5023157;28;20059;-67
2021/04/12 08:20:08;;;;;;;3.42;1.70;;;8.60;84.30;;;;;;5024809;28;20091;-67
2021/04/12 08:22:47;;;;;;;3.60;1.92;;;8.70;84.90;;;;;;5037186;28;20048;-68
2021/04/12 08:25:50;;;;;;;3.85;1.98;;;8.90;84.80;;;;;;5030856;28;20037;-69
2021/04/12 08:28:48;;;;;;;4.80;2.05;;;8.90;82.50;;;;;;5047187;28;20037;-69
2021/04/12 08:31:25;;;;;;;6.03;2.38;;;8.90;82.50;;;;;;5028856;28;20029;-70
2021/04/12 08:34:47;;;;;;;5.00;1.67;;;8.90;80.60;;;;;;5028765;28;20044;-69
2021/04/12 08:37:34;;;;;;;4.97;1.70;;;8.90;79.60;;;;;;5019776;28;20033;-68
2021/04/12 08:40:39;;;;;;;6.18;1.98;;;8.90;80.70;;;;;;5026674;28;20049;-69
2021/04/12 08:43:14;;;;;;;4.90;1.67;;;9.00;80.80;;;;;;5040273;28;20112;-69
2021/04/12 08:46:33;;;;;;;4.72;2.08;;;9.00;79.60;;;;;;5033164;28;20308;-69
2021/04/12 08:49:28;;;;;;;3.35;1.80;;;9.10;80.00;;;;;;5031579;28;20409;-68
2021/04/12 08:52:28;;;;;;;5.13;1.77;;;9.30;79.30;;;;;;5031131;28;20029;-68
2021/04/12 08:55:23;;;;;;;4.85;1.73;;;9.20;78.30;;;;;;5035093;28;20061;-69
2021/04/12 08:58:20;;;;;;;4.00;1.58;;;9.30;78.60;;;;;;5034725;28;20033;-69
2021/04/12 09:01:04;;;;;;;8.80;2.03;;;9.30;76.60;;;;;;5028868;28;20095;-66
2021/04/12 09:03:47;;;;;;;4.30;1.50;;;9.40;77.60;;;;;;5042473;28;20028;-68
2021/04/12 09:07:02;;;;;;;5.63;1.85;;;9.50;76.90;;;;;;5014952;28;20031;-67
2021/04/12 09:09:54;;;;;;;5.20;1.98;;;9.60;76.20;;;;;;5030117;28;20025;-67
2021/04/12 09:12:36;;;;;;;4.45;1.50;;;9.70;75.60;;;;;;5012370;28;20424;-67
2021/04/12 09:15:39;;;;;;;2.40;1.30;;;9.90;75.80;;;;;;5023225;28;20033;-67
2021/04/12 09:18:14;;;;;;;4.88;2.00;;;10.10;76.10;;;;;;5027665;28;20045;-67
2021/04/12 09:21:37;;;;;;;3.55;2.03;;;10.20;74.50;;;;;;5030609;28;20091;-67
2021/04/12 09:24:33;;;;;;;4.85;1.75;;;10.30;74.50;;;;;;4975406;28;20030;-67
2021/04/12 09:27:26;;;;;;;4.65;2.17;;;10.40;73.60;;;;;;4969637;28;20035;-67
2021/04/12 09:30:21;;;;;;;6.35;1.98;;;10.40;70.80;;;;;;5030447;28;20432;-68
2021/04/12 09:33:05;;;;;;;3.75;1.65;;;10.40;71.40;;;;;;5030465;28;20033;-66
2021/04/12 09:35:51;;;;;;;4.82;1.60;;;10.30;70.30;;;;;;5027949;28;20513;-66
2021/04/12 09:38:52;;;;;;;3.75;1.77;;;10.30;68.60;;;;;;5030530;28;20116;-67
2021/04/12 09:41:31;;;;;;;3.85;2.00;;;10.20;67.30;;;;;;5029031;28;20037;-67
2021/04/12 09:44:19;;;;;;;3.90;1.50;;;10.20;68.60;;;;;;5033734;28;20033;-67
2021/04/12 09:47:39;;;;;;;4.63;2.05;;;10.20;68.60;;;;;;5049954;28;20151;-67
2021/04/12 09:50:53;;;;;;;5.07;1.90;;;10.20;69.80;;;;;;5033877;28;20072;-68
2021/04/12 09:53:58;;;;;;;3.05;1.77;;;10.30;69.20;;;;;;4980269;28;20062;-68
2021/04/12 09:57:01;;;;;;;3.15;1.58;;;10.30;68.20;;;;;;4972138;28;20042;-66
2021/04/12 10:00:07;;;;;;;4.78;1.70;;;10.40;68.60;;;;;;5007037;28;501167;-67
2021/04/12 10:03:17;;;;;;;3.53;1.60;;;10.40;69.10;;;;;;5011749;28;20101;-66
2021/04/12 10:06:16;;;;;;;2.97;1.77;;;10.50;68.60;;;;;;5029979;28;20029;-67
2021/04/12 10:09:06;;;;;;;6.35;2.35;;;10.70;68.20;;;;;;5016626;28;20071;-68
2021/04/12 10:12:06;;;;;;;3.20;2.03;;;10.70;65.70;;;;;;5027592;28;20088;-67
2021/04/12 10:14:41;;;;;;;5.97;2.00;;;10.70;65.20;;;;;;5024955;28;20033;-67
2021/04/12 10:17:10;;;;;;;3.13;2.00;;;10.80;67.00;;;;;;5027379;28;20433;-67
2021/04/12 10:19:50;;;;;;;2.97;2.00;;;10.80;66.20;;;;;;5009426;28;20041;-67
2021/04/12 10:22:19;;;;;;;6.65;1.95;;;10.90;65.90;;;;;;5025690;28;20091;-68
2021/04/12 10:25:00;;;;;;;5.70;1.70;;;11.00;64.40;;;;;;5027577;28;20060;-66
2021/04/12 10:27:49;;;;;;;6.72;3.30;;;11.10;62.80;;;;;;5023920;28;20118;-67
2021/04/12 10:30:36;;;;;;;3.03;1.95;;;11.00;62.60;;;;;;5025617;28;20021;-67
2021/04/12 10:33:07;;;;;;;3.05;1.90;;;11.00;63.70;;;;;;5008097;28;20025;-66
2021/04/12 10:36:03;;;;;;;3.10;1.83;;;11.10;64.00;;;;;;5027650;28;20041;-67
2021/04/12 10:38:31;;;;;;;;;;;11.10;62.90;;;;;;5017643;28;20056;-67
2021/04/12 10:41:07;;;;;;;5.70;2.67;;;11.10;63.10;;;;;;5029427;28;19917;-67
2021/04/12 10:44:07;;;;;;;5.47;2.10;;;10.90;62.50;;;;;;5030088;28;20025;-68
2021/04/12 10:47:02;;;;;;;3.28;2.05;;;10.80;63.30;;;;;;5030590;28;20035;-67
2021/04/12 10:49:50;;;;;;;5.53;2.10;;;10.80;61.30;;;;;;5006558;28;20371;-66
2021/04/12 10:52:32;;;;;;;4.93;2.17;;;10.80;62.20;;;;;;5015057;28;20113;-67
2021/04/12 10:55:07;;;;;;;3.75;1.83;;;10.80;62.40;;;;;;5026102;28;20041;-66
2021/04/12 10:57:40;;;;;;;;;;;10.80;63.00;;;;;;5030413;28;20128;-67
2021/04/12 11:00:15;;;;;;;4.05;1.83;;;10.80;62.90;;;;;;5030948;28;19971;-67
2021/04/12 11:03:14;;;;;;;4.05;1.95;;;10.70;63.20;;;;;;5048465;28;20037;-67
2021/04/12 11:05:45;;;;;;;7.65;2.10;;;10.80;63.00;;;;;;5014489;28;20056;-67
2021/04/12 11:08:29;;;;;;;3.83;1.90;;;10.80;63.00;;;;;;5028535;28;20041;-67
2021/04/12 11:11:21;;;;;;;6.70;2.65;;;10.80;62.60;;;;;;5031086;28;20048;-67
2021/04/12 11:14:21;;;;;;;4.63;2.05;;;10.90;62.20;;;;;;5046568;28;20074;-66
2021/04/12 11:16:56;;;;;;;3.53;1.60;;;10.80;60.70;;;;;;5010569;28;20044;-67
2021/04/12 11:19:38;;;;;;;4.15;1.75;;;10.90;61.60;;;;;;5047616;28;20037;-67
2021/04/12 11:22:17;;;;;;;3.30;1.85;;;10.80;60.30;;;;;;5037384;28;20040;-66
2021/04/12 11:24:54;;;;;;;7.10;2.75;;;10.70;60.60;;;;;;5033362;28;20029;-67
2021/04/12 11:27:45;;;;;;;3.15;1.70;;;10.80;60.10;;;;;;5030860;28;20068;-67
2021/04/12 11:30:29;;;;;;;4.72;2.22;;;10.80;59.50;;;;;;5029743;28;20033;-67
2021/04/12 11:33:32;;;;;;;7.22;2.60;;;10.80;60.30;;;;;;5044775;28;20029;-68
2021/04/12 11:36:16;;;;;;;5.85;2.22;;;10.80;59.40;;;;;;5031709;28;20055;-68
2021/04/12 11:39:15;;;;;;;2.83;1.65;;;10.80;60.40;;;;;;5031165;28;20045;-68
2021/04/12 11:41:54;;;;;;;5.78;1.70;;;10.80;59.90;;;;;;5033304;28;20026;-67
2021/04/12 11:44:35;;;;;;;4.35;1.60;;;10.80;59.90;;;;;;4999067;28;20125;-67
2021/04/12 11:47:10;;;;;;;4.40;1.70;;;10.90;60.10;;;;;;5019976;28;20703;-68
2021/04/12 11:50:10;;;;;;;4.32;1.58;;;11.00;60.00;;;;;;5023646;28;20049;-66
2021/04/12 11:52:58;;;;;;;3.38;1.83;;;11.10;59.80;;;;;;5031824;28;20469;-67
2021/04/12 11:55:35;;;;;;;3.22;1.92;;;11.20;59.10;;;;;;5006488;28;20083;-67
2021/04/12 11:58:18;;;;;;;5.30;1.45;;;11.20;59.10;;;;;;5032653;28;20448;-67
2021/04/12 12:01:16;;;;;;;2.90;1.55;;;11.20;57.30;;;;;;5032246;28;20046;-67
2021/04/12 12:03:59;;;;;;;3.60;1.88;;;11.10;57.40;;;;;;5044472;28;20406;-67
2021/04/12 12:06:34;;;;;;;3.50;1.75;;;11.20;58.20;;;;;;5033485;28;20071;-67
2021/04/12 12:09:06;;;;;;;3.20;1.75;;;11.20;57.70;;;;;;5019024;28;20416;-67
2021/04/12 12:11:34;;;;;;;6.22;1.40;;;11.20;58.30;;;;;;5029229;28;20033;-68
2021/04/12 12:14:13;;;;;;;2.90;1.50;;;11.40;58.60;;;;;;5039983;28;20110;-67
2021/04/12 12:16:42;;;;;;;4.63;1.58;;;11.50;58.20;;;;;;5033486;28;20113;-67
2021/04/12 12:19:39;;;;;;;3.47;1.80;;;11.50;57.90;;;;;;5031988;28;20485;-67
2021/04/12 12:22:16;;;;;;;3.72;1.80;;;11.50;56.60;;;;;;5025353;28;20471;-67
2021/04/12 12:25:05;;;;;;;5.45;1.88;;;11.60;57.00;;;;;;5012880;28;20379;-67
2021/04/12 12:27:40;;;;;;;3.22;1.40;;;11.60;56.40;;;;;;5020697;28;20021;-68
2021/04/12 12:30:25;;;;;;;3.63;1.58;;;11.60;54.10;;;;;;5032340;28;20489;-67
2021/04/12 12:33:26;;;;;;;7.65;2.25;;;11.60;54.90;;;;;;5030076;28;20189;-66
2021/04/12 12:36:07;;;;;;;4.30;1.50;;;11.80;55.50;;;;;;5031579;28;20471;-67
2021/04/12 12:38:44;;;;;;;3.28;1.30;;;11.80;54.50;;;;;;5031798;28;20046;-67
2021/04/12 12:41:18;;;;;;;2.35;1.27;;;11.90;53.80;;;;;;5034545;28;20458;-67
2021/04/12 12:43:46;;;;;;;4.25;1.55;;;11.90;53.00;;;;;;5013704;28;20525;-68
2021/04/12 12:46:19;;;;;;;2.25;1.30;;;11.80;53.20;;;;;;5031523;28;20486;-67
2021/04/12 12:48:51;;;;;;;4.45;1.55;;;11.80;53.60;;;;;;5033279;28;20029;-67
2021/04/12 12:51:30;;;;;;;6.28;1.67;;;11.80;53.90;;;;;;5026023;28;20524;-66
2021/04/12 12:54:13;;;;;;;4.28;1.70;;;11.90;54.00;;;;;;5030892;28;20026;-66
2021/04/12 12:56:41;;;;;;;2.72;1.55;;;12.00;54.30;;;;;;5031212;28;20037;-66
2021/04/12 12:59:20;;;;;;;5.93;1.42;;;12.10;54.20;;;;;;5030622;28;20077;-69
2021/04/12 13:01:48;;;;;;;4.28;1.15;;;12.10;51.80;;;;;;5024186;28;20045;-67
2021/04/12 13:04:23;;;;;;;3.10;1.20;;;12.10;51.70;;;;;;5037734;28;20052;-67
2021/04/12 13:06:53;;;;;;;3.60;1.50;;;12.10;52.00;;;;;;5032354;28;20029;-67
2021/04/12 13:09:35;;;;;;;3.67;1.20;;;12.20;52.70;;;;;;5034771;28;20112;-66
2021/04/12 13:12:04;;;;;;;2.30;1.25;;;12.30;52.50;;;;;;5030569;28;20633;-67
2021/04/12 13:14:42;;;;;;;5.55;1.60;;;12.30;52.10;;;;;;5020593;28;20072;-67
2021/04/12 13:17:32;;;;;;;5.40;2.10;;;12.40;51.70;;;;;;5034486;28;20033;-66
2021/04/12 13:20:07;;;;;;;2.05;1.27;;;12.40;51.30;;;;;;5046621;28;20400;-66
2021/04/12 13:22:40;;;;;;;4.47;1.63;;;12.40;51.30;;;;;;5022192;28;20036;-66
2021/04/12 13:25:11;;;;;;;4.82;2.15;;;12.40;51.30;;;;;;5030621;28;20037;-66
2021/04/12 13:27:39;;;;;;;3.50;1.60;;;12.40;51.20;;;;;;5021039;28;20056;-66
2021/04/12 13:30:10;;;;;;;4.57;1.80;;;12.30;51.30;;;;;;5007864;28;20040;-70
2021/04/12 13:32:40;;;;;;;6.90;1.67;;;12.30;51.80;;;;;;5038477;28;20036;-68
2021/04/12 13:35:16;;;;;;;4.93;1.95;;;12.40;51.60;;;;;;5050111;28;20072;-69
2021/04/12 13:37:45;;;;;;;4.78;1.60;;;12.50;51.90;;;;;;5033347;28;20064;-68
2021/04/12 13:40:28;;;;;;;3.30;1.40;;;12.50;51.40;;;;;;5040478;28;20040;-69
2021/04/12 13:43:08;;;;;;;3.55;1.60;;;12.40;49.60;;;;;;5038199;28;20029;-67
2021/04/12 13:45:38;;;;;;;5.10;1.50;;;12.30;49.30;;;;;;5031262;28;20029;-69
2021/04/12 13:48:24;;;;;;;4.93;1.63;;;12.40;49.70;;;;;;5033162;28;20041;-69
2021/04/12 13:50:49;;;;;;;4.90;1.75;;;12.40;48.60;;;;;;5038216;28;20104;-68
2021/04/12 13:53:23;;;;;;;5.05;1.55;;;12.50;49.30;;;;;;5037727;28;20136;-68
2021/04/12 13:55:53;;;;;;;4.40;1.70;;;12.40;49.00;;;;;;5030059;28;20326;-68
2021/04/12 13:58:32;;;;;;;4.45;1.42;;;12.50;49.30;;;;;;5024823;28;20040;-68
2021/04/12 14:01:17;;;;;;;3.03;1.30;;;12.60;49.40;;;;;;5029937;28;20050;-67
2021/04/12 14:04:00;;;;;;;;;;;12.60;49.10;;;;;;5039904;28;20030;-69
2021/04/12 14:06:39;;;;;;;4.47;2.38;;;12.60;49.20;;;;;;5009147;28;19949;-68
2021/04/12 14:09:18;;;;;;;2.63;1.50;;;12.50;49.00;;;;;;5023629;28;20041;-69
2021/04/12 14:11:52;;;;;;;4.07;2.33;;;12.60;49.10;;;;;;5038829;28;20095;-68
2021/04/12 14:14:27;;;;;;;3.87;1.50;;;12.60;48.80;;;;;;5026609;28;20061;-69
2021/04/12 14:16:57;;;;;;;;;;;12.70;49.40;;;;;;5038980;28;20305;-69
2021/04/12 14:19:31;;;;;;;4.63;1.73;;;12.80;50.00;;;;;;5033801;28;19917;-68
2021/04/12 14:22:07;;;;;;;4.50;1.40;;;12.90;49.60;;;;;;5012287;28;20018;-69
2021/04/12 14:24:45;;;;;;;3.63;1.30;;;12.90;50.20;;;;;;5025840;28;20087;-68
2021/04/12 14:27:22;;;;;;;3.35;1.23;;;13.00;49.10;;;;;;5031606;28;20493;-67
2021/04/12 14:30:03;;;;;;;4.93;1.85;;;12.90;48.90;;;;;;5028909;28;20056;-70
2021/04/12 14:32:38;;;;;;;4.97;1.80;;;12.80;48.80;;;;;;5027364;28;20172;-69
2021/04/12 14:35:08;;;;;;;6.97;1.80;;;12.70;48.90;;;;;;5031859;28;20112;-70
2021/04/12 14:37:37;;;;;;;2.10;1.30;;;12.80;49.20;;;;;;5038752;28;20058;-67
2021/04/12 14:40:12;;;;;;;3.88;1.30;;;12.80;48.80;;;;;;5050252;28;20152;-69
2021/04/12 14:42:47;;;;;;;2.92;1.60;;;12.80;49.50;;;;;;5040085;28;20389;-71